createdAt,value
2023-09-01T00:00:01.704Z,1.97
2023-09-01T00:02:33.180Z,1.50
2023-09-01T00:05:08.816Z,2.47
2023-09-01T00:07:35.716Z,1.70
2023-09-01T00:10:02.414Z,1.80
2023-09-01T00:12:29.219Z,1.70
2023-09-01T00:14:55.930Z,1.87
2023-09-01T00:17:22.684Z,1.90
2023-09-01T00:19:51.923Z,1.87
2023-09-01T00:22:21.162Z,1.80
2023-09-01T00:24:47.919Z,1.97
2023-09-01T00:27:17.063Z,2.70
2023-09-01T00:29:43.774Z,2.20
2023-09-01T00:32:16.331Z,2.10
2023-09-01T00:34:43.071Z,2.00
2023-09-01T00:37:12.363Z,2.80
2023-09-01T00:39:43.834Z,2.50
2023-09-01T00:42:10.570Z,2.83
2023-09-01T00:44:37.297Z,2.80
2023-09-01T00:47:08.909Z,2.47
2023-09-01T00:49:38.911Z,2.60
2023-09-01T00:52:05.786Z,2.90
2023-09-01T00:54:34.922Z,2.90
2023-09-01T00:57:01.744Z,3.23
2023-09-01T00:59:31.410Z,2.60
2023-09-01T01:01:58.292Z,2.93
2023-09-01T01:04:27.009Z,2.40
2023-09-01T01:06:56.169Z,3.30
2023-09-01T01:09:25.926Z,3.00
2023-09-01T01:12:16.096Z,2.07
2023-09-01T01:14:49.127Z,2.60
2023-09-01T01:17:19.858Z,2.80
2023-09-01T01:19:55.144Z,2.50
2023-09-01T01:22:32.271Z,3.27
2023-09-01T01:25:06.416Z,2.83
2023-09-01T01:27:33.164Z,3.23
2023-09-01T01:29:59.923Z,2.03
2023-09-01T01:32:26.917Z,2.40
2023-09-01T01:35:16.916Z,2.93
2023-09-01T01:37:49.572Z,2.17
2023-09-01T01:40:17.090Z,2.37
2023-09-01T01:42:47.626Z,1.97
2023-09-01T01:45:21.958Z,1.73
2023-09-01T01:47:49.460Z,3.13
2023-09-01T01:50:18.762Z,2.70
2023-09-01T01:52:48.132Z,2.73
2023-09-01T01:55:17.327Z,2.10
2023-09-01T01:57:44.119Z,2.33
2023-09-01T02:00:16.483Z,2.37
2023-09-01T02:02:44.038Z,2.40
2023-09-01T02:05:11.250Z,3.07
2023-09-01T02:07:40.549Z,3.03
2023-09-01T02:10:10.425Z,2.70
2023-09-01T02:12:37.189Z,2.27
2023-09-01T02:15:10.320Z,2.20
2023-09-01T02:17:38.681Z,3.20
2023-09-01T02:20:17.879Z,2.47
2023-09-01T02:22:45.753Z,2.80
2023-09-01T02:25:17.709Z,3.23
2023-09-01T02:27:49.771Z,2.53
2023-09-01T02:30:19.583Z,3.10
2023-09-01T02:32:46.454Z,2.77
2023-09-01T02:35:13.262Z,3.10
2023-09-01T02:37:40.072Z,3.30
2023-09-01T02:40:15.744Z,3.80
2023-09-01T02:42:45.161Z,3.60
2023-09-01T02:45:15.326Z,3.80
2023-09-01T02:47:46.777Z,2.87
2023-09-01T02:50:16.025Z,3.27
2023-09-01T02:52:42.787Z,3.40
2023-09-01T02:55:12.086Z,2.60
2023-09-01T02:57:39.068Z,3.40
2023-09-01T03:00:23.604Z,3.10
2023-09-01T03:02:53.145Z,3.20
2023-09-01T03:05:27.722Z,3.20
2023-09-01T03:07:54.964Z,3.13
2023-09-01T03:10:24.339Z,3.03
2023-09-01T03:12:53.703Z,2.80
2023-09-01T03:15:23.741Z,3.10
2023-09-01T03:17:55.445Z,3.00
2023-09-01T03:20:22.269Z,3.03
2023-09-01T03:22:53.909Z,2.57
2023-09-01T03:25:23.188Z,3.80
2023-09-01T03:27:52.489Z,2.60
2023-09-01T03:30:19.240Z,2.60
2023-09-01T03:32:48.479Z,2.70
2023-09-01T03:35:15.405Z,3.10
2023-09-01T03:37:44.618Z,3.07
2023-09-01T03:40:14.344Z,3.43
2023-09-01T03:42:41.275Z,2.40
2023-09-01T03:45:10.895Z,2.70
2023-09-01T03:47:39.830Z,3.10
2023-09-01T03:50:09.091Z,3.07
2023-09-01T03:52:38.507Z,2.43
2023-09-01T03:55:07.852Z,2.83
2023-09-01T03:57:34.631Z,2.20
2023-09-01T04:00:01.838Z,2.77
2023-09-01T04:02:28.658Z,2.77
2023-09-01T04:05:00.501Z,2.70
2023-09-01T04:07:27.308Z,2.37
2023-09-01T04:09:54.003Z,2.70
2023-09-01T04:12:23.119Z,2.47
2023-09-01T04:14:49.943Z,2.33
2023-09-01T04:17:17.350Z,2.90
2023-09-01T04:19:47.630Z,2.67
2023-09-01T04:22:17.005Z,2.33
2023-09-01T04:24:46.690Z,2.50
2023-09-01T04:27:15.898Z,2.90
2023-09-01T04:29:52.108Z,2.50
2023-09-01T04:32:26.894Z,1.80
2023-09-01T04:34:58.344Z,2.30
2023-09-01T04:37:31.223Z,2.40
2023-09-01T04:40:07.398Z,2.50
2023-09-01T04:42:34.649Z,2.80
2023-09-01T04:45:01.856Z,2.37
2023-09-01T04:47:28.688Z,2.10
2023-09-01T04:49:58.562Z,2.50
2023-09-01T04:52:40.888Z,2.50
2023-09-01T04:55:12.662Z,2.07
2023-09-01T04:57:41.834Z,2.30
2023-09-01T05:00:17.699Z,1.90
2023-09-01T05:02:47.926Z,2.87
2023-09-01T05:05:15.233Z,2.37
2023-09-01T05:07:46.106Z,2.53
2023-09-01T05:10:16.780Z,2.80
2023-09-01T05:12:43.558Z,1.97
2023-09-01T05:15:15.305Z,2.10
2023-09-01T05:17:44.563Z,2.07
2023-09-01T05:20:13.932Z,2.27
2023-09-01T05:22:40.741Z,2.40
2023-09-01T05:25:07.922Z,2.10
2023-09-01T05:27:34.982Z,2.03
2023-09-01T05:30:04.097Z,1.87
2023-09-01T05:32:31.685Z,2.23
2023-09-01T05:34:58.553Z,2.77
2023-09-01T05:37:25.328Z,2.30
2023-09-01T05:39:52.687Z,2.77
2023-09-01T05:42:19.509Z,2.80
2023-09-01T05:44:46.290Z,2.33
2023-09-01T05:47:13.078Z,2.70
2023-09-01T05:49:42.574Z,1.90
2023-09-01T05:52:09.360Z,2.43
2023-09-01T05:54:36.096Z,2.20
2023-09-01T05:57:07.690Z,2.37
2023-09-01T05:59:34.502Z,2.30
2023-09-01T06:02:03.927Z,2.23
2023-09-01T06:04:30.707Z,3.07
2023-09-01T06:06:57.448Z,3.30
2023-09-01T06:09:26.399Z,2.87
2023-09-01T06:11:58.064Z,2.90
2023-09-01T06:14:24.859Z,2.30
2023-09-01T06:16:59.258Z,2.50
2023-09-01T06:19:28.429Z,2.60
2023-09-01T06:21:57.643Z,3.50
2023-09-01T06:24:26.805Z,2.90
2023-09-01T06:26:58.586Z,2.90
2023-09-01T06:29:27.792Z,2.20
2023-09-01T06:31:54.574Z,2.53
2023-09-01T06:34:22.197Z,2.10
2023-09-01T06:36:49.003Z,2.93
2023-09-01T06:39:23.246Z,2.23
2023-09-01T06:41:52.121Z,1.57
2023-09-01T06:44:18.863Z,2.07
2023-09-01T06:46:45.609Z,2.00
2023-09-01T06:49:17.142Z,2.43
2023-09-01T06:51:44.021Z,1.80
2023-09-01T06:54:10.781Z,2.10
2023-09-01T06:56:42.385Z,1.57
2023-09-01T06:59:11.576Z,1.97
2023-09-01T07:01:43.277Z,1.93
2023-09-01T07:04:10.043Z,1.80
2023-09-01T07:06:41.280Z,1.70
2023-09-01T07:09:08.160Z,2.40
2023-09-01T07:11:37.023Z,1.60
2023-09-01T07:14:08.314Z,1.80
2023-09-01T07:16:39.679Z,1.80
2023-09-01T07:19:08.879Z,1.57
2023-09-01T07:21:38.478Z,1.83
2023-09-01T07:24:10.105Z,2.10
2023-09-01T07:26:36.824Z,1.77
2023-09-01T07:29:05.992Z,1.47
2023-09-01T07:31:32.906Z,1.60
2023-09-01T07:34:02.053Z,1.50
2023-09-01T07:36:28.766Z,1.97
2023-09-01T07:38:57.933Z,1.50
2023-09-01T07:41:27.137Z,1.70
2023-09-01T07:43:53.919Z,1.93
2023-09-01T07:46:20.734Z,2.00
2023-09-01T07:48:49.652Z,2.13
2023-09-01T07:51:18.959Z,1.77
2023-09-01T07:53:47.820Z,1.80
2023-09-01T07:56:16.979Z,0.97
2023-09-01T07:58:43.881Z,1.90
2023-09-01T08:01:15.132Z,2.30
2023-09-01T08:03:44.132Z,1.70
2023-09-01T08:06:13.381Z,1.40
2023-09-01T08:08:40.141Z,1.63
2023-09-01T08:11:11.469Z,1.70
2023-09-01T08:13:38.254Z,1.60
2023-09-01T08:16:07.120Z,2.23
2023-09-01T08:18:36.798Z,1.50
2023-09-01T08:21:08.975Z,2.80
2023-09-01T08:23:41.703Z,2.60
2023-09-01T08:26:11.074Z,10.30
2023-09-01T08:28:42.523Z,11.13
2023-09-01T08:31:11.768Z,6.87
2023-09-01T08:33:38.590Z,4.20
2023-09-01T08:36:05.505Z,3.13
2023-09-01T08:38:34.594Z,3.00
2023-09-01T08:41:01.852Z,2.40
2023-09-01T08:43:37.340Z,1.73
2023-09-01T08:46:14.482Z,1.60
2023-09-01T08:48:46.610Z,1.50
2023-09-01T08:51:16.307Z,1.50
2023-09-01T08:53:48.233Z,1.43
2023-09-01T08:56:17.428Z,1.30
2023-09-01T08:58:49.076Z,2.17
2023-09-01T09:01:19.701Z,1.40
2023-09-01T09:03:49.494Z,1.80
2023-09-01T09:06:18.788Z,1.83
2023-09-01T09:09:06.562Z,1.30
2023-09-01T09:11:33.374Z,1.50
2023-09-01T09:14:08.328Z,1.23
2023-09-01T09:16:51.384Z,1.07
2023-09-01T09:19:22.977Z,1.87
2023-09-01T09:21:49.963Z,1.10
2023-09-01T09:24:34.135Z,1.70
2023-09-01T09:27:00.898Z,1.17
2023-09-01T09:29:38.157Z,1.30
2023-09-01T09:32:39.203Z,1.77
2023-09-01T09:35:25.056Z,1.03
2023-09-01T09:38:02.297Z,1.20
2023-09-01T09:40:31.504Z,1.10
2023-09-01T09:43:03.364Z,1.17
2023-09-01T09:45:34.275Z,1.50
2023-09-01T09:48:08.148Z,1.13
2023-09-01T09:50:38.663Z,1.20
2023-09-01T09:53:09.447Z,0.97
2023-09-01T09:55:48.983Z,1.40
2023-09-01T09:58:19.877Z,1.13
2023-09-01T10:00:56.391Z,1.50
2023-09-01T10:03:27.267Z,0.90
2023-09-01T10:05:56.512Z,1.27
2023-09-01T10:08:26.133Z,1.10
2023-09-01T10:10:55.729Z,1.17
2023-09-01T10:13:22.893Z,1.30
2023-09-01T10:15:49.886Z,1.30
2023-09-01T10:18:19.143Z,1.40
2023-09-01T10:20:46.072Z,1.43
2023-09-01T10:23:15.681Z,1.30
2023-09-01T10:26:04.840Z,1.60
2023-09-01T10:28:34.122Z,1.43
2023-09-01T10:31:19.173Z,1.20
2023-09-01T10:33:48.143Z,1.10
2023-09-01T10:36:19.670Z,1.10
2023-09-01T10:38:46.435Z,1.20
2023-09-01T10:41:15.493Z,1.20
2023-09-01T10:43:46.358Z,1.27
2023-09-01T10:46:18.592Z,1.40
2023-09-01T10:49:05.518Z,1.20
2023-09-01T10:51:35.596Z,1.30
2023-09-01T10:54:25.111Z,1.23
2023-09-01T10:56:54.941Z,1.60
2023-09-01T10:59:37.961Z,1.40
2023-09-01T11:02:25.994Z,1.00
2023-09-01T11:04:57.564Z,0.93
2023-09-01T11:07:26.728Z,1.20
2023-09-01T11:09:59.328Z,1.10
2023-09-01T11:12:33.382Z,1.37
2023-09-01T11:15:04.736Z,0.80
2023-09-01T11:17:42.229Z,2.30
2023-09-01T11:20:11.026Z,1.17
2023-09-01T11:22:43.035Z,1.30
2023-09-01T11:25:12.923Z,1.00
2023-09-01T11:27:45.152Z,6.20
2023-09-01T11:30:14.446Z,1.80
2023-09-01T11:32:41.333Z,1.17
2023-09-01T11:35:09.203Z,1.17
2023-09-01T11:37:39.297Z,1.13
2023-09-01T11:40:11.065Z,0.93
2023-09-01T11:42:39.497Z,1.00
2023-09-01T11:45:09.847Z,1.23
2023-09-01T11:47:41.120Z,1.50
2023-09-01T11:50:15.063Z,0.90
2023-09-01T11:52:51.826Z,1.03
2023-09-01T11:55:29.957Z,1.30
2023-09-01T11:57:58.115Z,1.20
2023-09-01T12:00:33.399Z,1.30
2023-09-01T12:03:00.852Z,1.53
2023-09-01T12:05:34.316Z,1.13
2023-09-01T12:08:03.063Z,1.57
2023-09-01T12:10:32.792Z,1.10
2023-09-01T12:13:05.816Z,1.10
2023-09-01T12:15:34.968Z,1.10
2023-09-01T12:18:25.484Z,0.97
2023-09-01T12:20:54.874Z,1.10
2023-09-01T12:23:35.133Z,1.47
2023-09-01T12:26:06.843Z,1.20
2023-09-01T12:28:37.238Z,1.10
2023-09-01T12:31:04.853Z,0.93
2023-09-01T12:33:36.665Z,1.30
2023-09-01T12:36:06.359Z,1.10
2023-09-01T12:38:33.154Z,0.97
2023-09-01T12:41:02.118Z,1.10
2023-09-01T12:43:31.200Z,1.20
2023-09-01T12:46:00.111Z,1.50
2023-09-01T12:48:27.074Z,0.83
2023-09-01T12:50:58.368Z,1.43
2023-09-01T12:53:27.657Z,1.03
2023-09-01T12:55:54.415Z,1.10
2023-09-01T12:58:23.518Z,1.40
2023-09-01T13:00:52.353Z,1.10
2023-09-01T13:03:19.468Z,1.40
2023-09-01T13:05:50.861Z,1.40
2023-09-01T13:08:17.804Z,1.20
2023-09-01T13:10:46.884Z,1.40
2023-09-01T13:13:14.163Z,1.43
2023-09-01T13:15:48.316Z,1.30
2023-09-01T13:18:19.797Z,0.90
2023-09-01T13:20:46.585Z,1.27
2023-09-01T13:23:15.996Z,1.10
2023-09-01T13:25:43.051Z,1.13
2023-09-01T13:28:16.947Z,0.93
2023-09-01T13:30:46.818Z,1.17
2023-09-01T13:33:15.522Z,0.57
2023-09-01T13:35:43.474Z,0.90
2023-09-01T13:38:13.244Z,1.07
2023-09-01T13:40:42.376Z,0.77
2023-09-01T13:43:11.511Z,1.00
2023-09-01T13:45:40.622Z,0.70
2023-09-01T13:48:07.452Z,0.97
2023-09-01T13:50:36.631Z,0.70
2023-09-01T13:53:08.746Z,0.80
2023-09-01T13:55:38.017Z,1.10
2023-09-01T13:58:07.206Z,1.13
2023-09-01T14:00:36.489Z,1.13
2023-09-01T14:03:07.778Z,1.10
2023-09-01T14:05:36.750Z,0.90
2023-09-01T14:08:08.629Z,1.20
2023-09-01T14:10:37.790Z,1.00
2023-09-01T14:13:06.899Z,1.40
2023-09-01T14:15:38.505Z,0.97
2023-09-01T14:18:07.742Z,1.47
2023-09-01T14:20:34.615Z,1.20
2023-09-01T14:23:01.366Z,1.07
2023-09-01T14:25:28.485Z,1.10
2023-09-01T14:27:57.632Z,1.20
2023-09-01T14:30:26.470Z,1.00
2023-09-01T14:33:10.533Z,0.70
2023-09-01T14:35:42.541Z,0.90
2023-09-01T14:38:13.910Z,1.10
2023-09-01T14:40:40.580Z,1.20
2023-09-01T14:43:07.331Z,1.00
2023-09-01T14:45:38.469Z,1.10
2023-09-01T14:48:07.798Z,1.50
2023-09-01T14:50:34.569Z,0.80
2023-09-01T14:53:03.766Z,0.97
2023-09-01T14:55:35.316Z,1.10
2023-09-01T14:58:04.420Z,1.00
2023-09-01T15:00:33.749Z,1.30
2023-09-01T15:03:00.859Z,0.70
2023-09-01T15:05:29.735Z,0.80
2023-09-01T15:07:56.441Z,1.07
2023-09-01T15:10:31.268Z,1.00
2023-09-01T15:13:16.710Z,1.00
2023-09-01T15:15:46.098Z,1.70
2023-09-01T15:18:13.054Z,1.00
2023-09-01T15:20:43.548Z,1.43
2023-09-01T15:23:12.513Z,0.80
2023-09-01T15:25:39.988Z,1.20
2023-09-01T15:28:11.757Z,0.93
2023-09-01T15:30:43.107Z,1.00
2023-09-01T15:33:12.277Z,0.93
2023-09-01T15:35:41.615Z,0.93
2023-09-01T15:38:08.467Z,0.93
2023-09-01T15:40:36.404Z,1.10
2023-09-01T15:43:05.610Z,0.87
2023-09-01T15:45:37.079Z,0.93
2023-09-01T15:48:06.276Z,0.73
2023-09-01T15:50:45.618Z,1.20
2023-09-01T15:53:14.097Z,0.83
2023-09-01T15:55:43.672Z,1.33
2023-09-01T15:58:12.952Z,0.90
2023-09-01T16:00:42.069Z,1.00
2023-09-01T16:03:23.045Z,1.57
2023-09-01T16:05:56.216Z,2.30
2023-09-01T16:08:22.919Z,1.17
2023-09-01T16:10:52.013Z,0.90
2023-09-01T16:13:18.950Z,1.20
2023-09-01T16:15:53.023Z,1.60
2023-09-01T16:18:24.638Z,1.30
2023-09-01T16:20:51.381Z,1.53
2023-09-01T16:23:18.304Z,1.37
2023-09-01T16:25:55.894Z,1.70
2023-09-01T16:28:27.736Z,1.47
2023-09-01T16:30:57.364Z,1.03
2023-09-01T16:33:24.102Z,0.80
2023-09-01T16:35:56.552Z,1.30
2023-09-01T16:38:29.088Z,1.13
2023-09-01T16:41:00.088Z,1.00
2023-09-01T16:43:27.124Z,1.00
2023-09-01T16:45:56.311Z,1.17
2023-09-01T16:48:28.471Z,1.00
2023-09-01T16:50:57.644Z,1.20
2023-09-01T16:53:24.460Z,1.10
2023-09-01T16:55:51.248Z,1.13
2023-09-01T16:58:18.011Z,1.23
2023-09-01T17:00:49.576Z,1.20
2023-09-01T17:03:23.791Z,0.97
2023-09-01T17:05:52.941Z,1.00
2023-09-01T17:08:22.003Z,1.30
2023-09-01T17:10:53.374Z,0.90
2023-09-01T17:13:22.560Z,0.90
2023-09-01T17:15:51.991Z,1.50
2023-09-01T17:18:20.925Z,1.57
2023-09-01T17:20:57.516Z,1.20
2023-09-01T17:23:28.180Z,1.70
2023-09-01T17:26:02.347Z,1.43
2023-09-01T17:28:31.557Z,1.90
2023-09-01T17:31:03.301Z,1.63
2023-09-01T17:33:35.094Z,1.30
2023-09-01T17:36:07.159Z,1.37
2023-09-01T17:38:42.145Z,1.50
2023-09-01T17:41:12.302Z,1.30
2023-09-01T17:43:41.571Z,1.20
2023-09-01T17:46:13.760Z,1.93
2023-09-01T17:48:42.998Z,1.60
2023-09-01T17:51:11.881Z,1.60
2023-09-01T17:53:41.029Z,1.63
2023-09-01T17:56:10.207Z,2.03
2023-09-01T17:58:42.518Z,2.00
2023-09-01T18:01:15.051Z,1.40
2023-09-01T18:03:49.223Z,1.40
2023-09-01T18:06:18.914Z,1.53
2023-09-01T18:08:46.557Z,2.23
2023-09-01T18:11:18.628Z,2.20
2023-09-01T18:13:48.438Z,2.13
2023-09-01T18:16:20.006Z,2.00
2023-09-01T18:18:48.861Z,2.50
2023-09-01T18:21:17.704Z,2.67
2023-09-01T18:23:44.475Z,1.97
2023-09-01T18:26:12.226Z,2.20
2023-09-01T18:28:45.054Z,1.93
2023-09-01T18:31:20.082Z,1.90
2023-09-01T18:33:48.773Z,1.80
2023-09-01T18:36:20.492Z,2.47
2023-09-01T18:38:49.885Z,2.10
2023-09-01T18:41:19.403Z,2.23
2023-09-01T18:43:53.167Z,2.00
2023-09-01T18:46:19.910Z,2.50
2023-09-01T18:48:48.867Z,2.50
2023-09-01T18:51:15.720Z,1.53
2023-09-01T18:53:48.194Z,1.97
2023-09-01T18:56:18.438Z,2.20
2023-09-01T18:58:47.792Z,3.00
2023-09-01T19:01:17.794Z,3.40
2023-09-01T19:03:44.848Z,3.73
2023-09-01T19:06:19.538Z,4.80
2023-09-01T19:08:46.318Z,3.80
2023-09-01T19:11:14.154Z,4.47
2023-09-01T19:13:40.906Z,3.70
2023-09-01T19:16:10.783Z,3.80
2023-09-01T19:18:40.164Z,3.57
2023-09-01T19:21:09.830Z,2.90
2023-09-01T19:23:39.793Z,3.30
2023-09-01T19:26:27.939Z,2.70
2023-09-01T19:28:57.061Z,2.90
2023-09-01T19:31:26.022Z,2.60
2023-09-01T19:33:59.236Z,2.30
2023-09-01T19:36:31.869Z,1.60
2023-09-01T19:39:02.192Z,1.70
2023-09-01T19:41:35.696Z,2.10
2023-09-01T19:44:08.277Z,1.80
2023-09-01T19:46:40.372Z,1.80
2023-09-01T19:49:13.204Z,1.93
2023-09-01T19:51:41.028Z,2.20
2023-09-01T19:54:14.525Z,1.67
2023-09-01T19:56:43.764Z,1.80
2023-09-01T19:59:15.410Z,1.80
2023-09-01T20:01:44.711Z,1.70
2023-09-01T20:04:13.091Z,2.07
2023-09-01T20:06:42.348Z,2.10
2023-09-01T20:09:15.598Z,2.60
2023-09-01T20:11:47.658Z,4.27
2023-09-01T20:14:17.540Z,4.93
2023-09-01T20:16:47.004Z,6.10
2023-09-01T20:19:17.153Z,5.77
2023-09-01T20:21:43.929Z,5.23
2023-09-01T20:24:10.807Z,4.30
2023-09-01T20:26:37.539Z,4.10
2023-09-01T20:29:06.760Z,4.40
2023-09-01T20:31:38.471Z,4.63
2023-09-01T20:34:11.231Z,4.37
2023-09-01T20:36:39.240Z,4.67
2023-09-01T20:39:08.367Z,3.70
2023-09-01T20:41:37.248Z,4.60
2023-09-01T20:44:04.199Z,5.37
2023-09-01T20:46:36.031Z,4.90
2023-09-01T20:49:03.735Z,4.13
2023-09-01T20:51:30.552Z,5.70
2023-09-01T20:53:57.295Z,4.90
2023-09-01T20:56:26.681Z,4.37
2023-09-01T20:58:53.460Z,3.57
2023-09-01T21:01:20.306Z,5.40
2023-09-01T21:03:52.119Z,4.87
2023-09-01T21:06:21.461Z,5.47
2023-09-01T21:08:48.226Z,4.80
2023-09-01T21:11:17.341Z,4.30
2023-09-01T21:13:44.151Z,3.17
2023-09-01T21:16:15.744Z,2.57
2023-09-01T21:18:45.256Z,2.60
2023-09-01T21:21:15.453Z,2.27
2023-09-01T21:23:47.122Z,2.70
2023-09-01T21:26:16.299Z,1.87
2023-09-01T21:28:45.346Z,2.60
2023-09-01T21:31:17.082Z,2.00
2023-09-01T21:33:43.848Z,1.83
2023-09-01T21:36:10.585Z,1.97
2023-09-01T21:38:40.371Z,1.97
2023-09-01T21:41:09.592Z,1.93
2023-09-01T21:43:40.959Z,1.97
2023-09-01T21:46:10.162Z,1.93
2023-09-01T21:48:39.266Z,2.10
2023-09-01T21:51:06.083Z,2.20
2023-09-01T21:53:40.601Z,2.13
2023-09-01T21:56:09.802Z,2.13
2023-09-01T21:58:36.578Z,2.07
2023-09-01T22:01:05.897Z,2.07
2023-09-01T22:03:32.707Z,2.33
2023-09-01T22:06:03.191Z,2.47
2023-09-01T22:08:32.395Z,2.30
2023-09-01T22:11:01.249Z,2.10
2023-09-01T22:13:30.610Z,2.30
2023-09-01T22:15:57.358Z,2.30
2023-09-01T22:18:26.529Z,2.27
2023-09-01T22:20:58.120Z,2.20
2023-09-01T22:23:27.855Z,1.67
2023-09-01T22:25:59.560Z,2.30
2023-09-01T22:28:26.898Z,1.90
2023-09-01T22:30:55.994Z,1.90
2023-09-01T22:33:25.138Z,2.27
2023-09-01T22:35:54.333Z,2.10
2023-09-01T22:38:23.561Z,1.97
2023-09-01T22:40:52.755Z,2.00
2023-09-01T22:43:20.179Z,2.30
2023-09-01T22:45:54.616Z,2.70
2023-09-01T22:48:26.463Z,2.50
2023-09-01T22:50:53.282Z,2.50
2023-09-01T22:53:22.181Z,2.60
2023-09-01T22:55:48.889Z,2.30
2023-09-01T22:58:17.885Z,2.00
2023-09-01T23:00:47.129Z,2.00
2023-09-01T23:03:21.139Z,2.30
2023-09-01T23:05:47.960Z,1.57
2023-09-01T23:08:14.696Z,2.17
2023-09-01T23:10:43.937Z,3.30
2023-09-01T23:13:13.055Z,2.40
2023-09-01T23:15:39.807Z,2.40
2023-09-01T23:18:06.736Z,2.03
2023-09-01T23:20:33.431Z,2.30
2023-09-01T23:23:05.482Z,2.07
2023-09-01T23:25:37.612Z,1.83
2023-09-01T23:28:04.554Z,1.60
2023-09-01T23:30:33.435Z,2.10
2023-09-01T23:33:02.643Z,2.23
2023-09-01T23:35:32.634Z,2.13
2023-09-01T23:38:00.041Z,2.10
2023-09-01T23:40:31.881Z,2.23
2023-09-01T23:42:58.590Z,2.13
2023-09-01T23:45:27.719Z,2.53
2023-09-01T23:47:55.955Z,2.57
2023-09-01T23:50:27.597Z,1.93
2023-09-01T23:52:56.773Z,2.13
2023-09-01T23:55:25.719Z,2.17
2023-09-01T23:57:54.632Z,2.33
